Time;durP1;ratioP1;P1;durP2;ratioP2;P2;SDS_P1;SDS_P2;PMS_P1;PMS_P2;Temp;Humidity;BMP_temperature;BMP_pressure;BME280_temperature;BME280_humidity;BME280_pressure;Samples;Min_cycle;Max_cycle;Signal;HPM_P1;HPM_P2
2023/06/15 00:03:48;;;;;;;3.90;2.00;;;;;;;15.32;100.00;101992.16;10375428;28;20041;-69
2023/06/15 00:08:48;;;;;;;3.55;1.85;;;;;;;15.25;100.00;101979.56;10374644;28;20038;-68
2023/06/15 00:13:49;;;;;;;4.60;1.92;;;;;;;15.18;100.00;101987.25;10387737;28;20123;-68
2023/06/15 00:18:54;;;;;;;4.15;1.88;;;;;;;15.05;100.00;101989.31;10415519;28;20037;-68
2023/06/15 00:23:55;;;;;;;5.50;2.00;;;;;;;15.00;100.00;101980.91;10398130;28;20375;-69
2023/06/15 00:28:55;;;;;;;3.17;2.10;;;;;;;14.90;100.00;101984.41;10406327;28;20041;-69
2023/06/15 00:33:56;;;;;;;4.47;2.30;;;;;;;14.82;100.00;101984.00;10416389;28;20517;-69
2023/06/15 00:38:57;;;;;;;3.67;1.90;;;;;;;14.71;100.00;101974.69;10391363;28;20049;-66
2023/06/15 00:43:57;;;;;;;5.20;2.45;;;;;;;14.71;100.00;101992.16;10374593;28;20068;-68
2023/06/15 00:48:58;;;;;;;3.53;2.08;;;;;;;14.66;100.00;101988.50;10374040;28;20045;-70
2023/06/15 00:53:58;;;;;;;5.43;2.17;;;;;;;14.63;100.00;101994.53;10375396;28;20053;-68
2023/06/15 00:58:59;;;;;;;6.90;2.60;;;;;;;14.59;100.00;101994.19;10357511;28;20034;-69
2023/06/15 01:04:01;;;;;;;9.80;3.28;;;;;;;14.53;100.00;101992.41;10371137;28;20050;-69
2023/06/15 01:09:02;;;;;;;5.78;2.33;;;;;;;14.52;100.00;101987.97;10347419;28;20026;-70
2023/06/15 01:14:03;;;;;;;7.32;2.38;;;;;;;14.47;100.00;102001.72;10319551;28;20048;-69
2023/06/15 01:19:09;;;;;;;4.93;2.83;;;;;;;14.41;100.00;101991.69;10371396;28;20135;-67
2023/06/15 01:24:18;;;;;;;7.57;3.30;;;;;;;14.36;100.00;101984.13;10341930;28;20596;-70
2023/06/15 01:29:19;;;;;;;7.03;3.05;;;;;;;14.32;100.00;101989.34;10370674;28;20069;-70
2023/06/15 01:34:20;;;;;;;9.70;3.10;;;;;;;14.26;100.00;101983.94;10371718;28;20061;-69
2023/06/15 01:39:20;;;;;;;5.15;2.75;;;;;;;14.15;100.00;101974.63;10372290;28;20041;-70
2023/06/15 01:44:21;;;;;;;5.72;2.70;;;;;;;14.15;100.00;101988.47;10354157;28;20049;-69
2023/06/15 01:49:21;;;;;;;6.72;3.10;;;;;;;14.06;100.00;101978.94;10372847;28;20038;-69
2023/06/15 01:54:22;;;;;;;5.22;3.33;;;;;;;14.05;100.00;101982.78;10371218;28;20056;-69
2023/06/15 01:59:22;;;;;;;8.07;2.78;;;;;;;14.03;100.00;101990.50;10371525;28;20037;-68
2023/06/15 02:04:23;;;;;;;4.05;2.70;;;;;;;13.97;100.00;101997.03;10372411;28;20030;-70
2023/06/15 02:09:24;;;;;;;9.98;2.83;;;;;;;13.92;100.00;101995.84;10368905;28;20093;-69
2023/06/15 02:14:24;;;;;;;7.38;3.78;;;;;;;13.88;100.00;101989.13;10373516;28;20053;-69
2023/06/15 02:19:27;;;;;;;5.43;3.20;;;;;;;13.88;100.00;101991.91;10369964;28;20344;-68
2023/06/15 02:24:28;;;;;;;4.68;2.75;;;;;;;13.89;100.00;101995.50;10371901;28;20096;-69
2023/06/15 02:29:28;;;;;;;4.18;2.70;;;;;;;13.85;100.00;101994.31;10372153;28;20486;-70
2023/06/15 02:34:30;;;;;;;9.07;3.65;;;;;;;13.81;100.00;101991.22;10375173;28;20498;-68
2023/06/15 02:39:30;;;;;;;7.20;3.13;;;;;;;13.77;100.00;102001.13;10355236;28;20045;-69
2023/06/15 02:44:31;;;;;;;7.45;3.40;;;;;;;13.73;100.00;101994.41;10338222;28;20042;-68
2023/06/15 02:49:31;;;;;;;5.90;3.13;;;;;;;13.69;100.00;102001.50;10354689;28;20054;-69
2023/06/15 02:54:36;;;;;;;8.15;3.33;;;;;;;13.61;100.00;102004.69;10338407;28;20062;-69
2023/06/15 02:59:37;;;;;;;6.45;2.65;;;;;;;13.53;100.00;102003.97;10320119;28;20065;-69
2023/06/15 03:04:44;;;;;;;9.80;4.00;;;;;;;13.49;100.00;102008.31;10327198;28;20070;-69
2023/06/15 03:09:48;;;;;;;5.97;4.38;;;;;;;13.44;100.00;102015.69;10349198;28;20037;-68
2023/06/15 03:14:50;;;;;;;6.45;3.10;;;;;;;13.41;100.00;102005.09;10347320;28;20065;-70
2023/06/15 03:19:50;;;;;;;5.85;3.53;;;;;;;13.33;100.00;102009.09;10353073;28;20050;-68
2023/06/15 03:24:54;;;;;;;8.10;3.13;;;;;;;13.25;100.00;101993.72;10335824;28;20038;-69
2023/06/15 03:29:56;;;;;;;6.28;3.50;;;;;;;13.21;100.00;101997.19;10343489;28;20048;-69
2023/06/15 03:34:58;;;;;;;6.18;2.80;;;;;;;13.13;100.00;102004.78;10376173;28;20042;-69
2023/06/15 03:39:59;;;;;;;6.75;3.00;;;;;;;13.13;100.00;102003.97;10376744;28;20061;-69
2023/06/15 03:45:01;;;;;;;6.50;3.13;;;;;;;13.09;100.00;101998.06;10374052;28;20056;-70
2023/06/15 03:50:01;;;;;;;6.40;2.75;;;;;;;13.07;100.00;102000.25;10376441;28;20098;-69
2023/06/15 03:55:02;;;;;;;5.90;3.22;;;;;;;13.07;100.00;101999.41;10377661;28;20038;-70
2023/06/15 04:00:07;;;;;;;6.45;2.53;;;;;;;13.06;100.00;102004.09;10374288;28;20090;-67
2023/06/15 04:05:07;;;;;;;6.43;2.80;;;;;;;13.05;100.00;102007.94;10375715;28;20060;-69
2023/06/15 04:10:08;;;;;;;5.43;3.10;;;;;;;13.07;100.00;102010.47;10375436;28;20030;-69
2023/06/15 04:15:10;;;;;;;5.75;3.28;;;;;;;13.02;100.00;102008.44;10380472;28;20099;-69
2023/06/15 04:20:11;;;;;;;5.28;3.15;;;;;;;13.08;100.00;102013.00;10374722;28;20156;-68
2023/06/15 04:25:12;;;;;;;5.88;2.85;;;;;;;13.09;100.00;102009.13;10380664;28;20077;-69
2023/06/15 04:30:16;;;;;;;8.20;3.00;;;;;;;13.11;100.00;102015.25;10363772;28;20038;-69
2023/06/15 04:35:17;;;;;;;6.50;2.83;;;;;;;13.15;100.00;102017.53;10318148;28;20034;-68
2023/06/15 04:40:20;;;;;;;5.93;3.15;;;;;;;13.21;100.00;102022.06;10333747;28;20038;-69
2023/06/15 04:45:20;;;;;;;4.65;2.40;;;;;;;13.25;100.00;102017.72;10365616;28;20213;-69
2023/06/15 04:50:21;;;;;;;7.07;2.40;;;;;;;13.34;100.00;102021.00;10373400;28;20510;-68
2023/06/15 04:55:22;;;;;;;5.03;2.38;;;;;;;13.44;100.00;102012.94;10372895;28;20060;-69
2023/06/15 05:00:22;;;;;;;7.00;2.70;;;;;;;13.51;100.00;102017.22;10363077;28;20042;-69
2023/06/15 05:05:23;;;;;;;6.18;2.75;;;;;;;13.60;100.00;102025.13;10372887;28;20045;-69
2023/06/15 05:10:23;;;;;;;5.97;2.40;;;;;;;13.68;100.00;102019.19;10372977;28;20089;-68
2023/06/15 05:15:24;;;;;;;6.03;3.20;;;;;;;13.73;100.00;102016.53;10373951;28;20038;-70
2023/06/15 05:20:24;;;;;;;4.68;2.72;;;;;;;13.87;100.00;102019.81;10374023;28;20073;-67
2023/06/15 05:25:25;;;;;;;4.72;2.60;;;;;;;14.01;100.00;102018.41;10372921;28;20034;-69
2023/06/15 05:30:26;;;;;;;3.67;2.40;;;;;;;14.07;100.00;101998.03;10373360;28;20539;-69
2023/06/15 05:35:27;;;;;;;3.90;2.30;;;;;;;14.40;100.00;102012.16;10375025;28;20573;-69
2023/06/15 05:40:27;;;;;;;6.35;2.38;;;;;;;14.60;100.00;102023.59;10373099;28;20042;-68
2023/06/15 05:45:30;;;;;;;3.30;2.00;;;;;;;14.82;100.00;102020.88;10373202;28;20044;-69
2023/06/15 05:50:31;;;;;;;4.05;2.25;;;;;;;15.11;100.00;102023.47;10371504;28;20034;-69
2023/06/15 05:55:33;;;;;;;2.42;1.90;;;;;;;15.43;100.00;102015.31;10372706;28;20042;-69
2023/06/15 06:00:33;;;;;;;3.35;2.03;;;;;;;15.86;100.00;102009.97;10373060;28;20046;-69
2023/06/15 06:05:34;;;;;;;3.55;1.88;;;;;;;16.38;100.00;102009.34;10372606;28;20177;-71
2023/06/15 06:10:34;;;;;;;5.28;2.08;;;;;;;16.85;100.00;101997.47;10373450;28;20037;-69
2023/06/15 06:15:35;;;;;;;5.25;2.10;;;;;;;17.31;100.00;101994.88;10371086;28;20038;-70
2023/06/15 06:20:36;;;;;;;4.82;2.78;;;;;;;17.77;100.00;101991.38;10372192;28;20030;-69
2023/06/15 06:25:36;;;;;;;8.35;2.05;;;;;;;18.05;100.00;101990.06;10371349;28;20042;-69
2023/06/15 06:30:38;;;;;;;3.95;2.45;;;;;;;18.35;100.00;102000.41;10372561;28;20037;-69
2023/06/15 06:35:38;;;;;;;4.45;2.17;;;;;;;18.80;100.00;101997.84;10350498;28;20509;-69
2023/06/15 06:40:39;;;;;;;2.95;1.92;;;;;;;19.11;100.00;101995.78;10350345;28;20049;-69
2023/06/15 06:45:39;;;;;;;11.73;3.50;;;;;;;19.29;100.00;101974.78;10351361;28;20081;-68
2023/06/15 06:50:40;;;;;;;5.10;2.55;;;;;;;19.41;100.00;101980.03;10349796;28;20035;-69
2023/06/15 06:55:43;;;;;;;4.20;2.55;;;;;;;19.65;100.00;101970.94;10350478;28;20042;-69
2023/06/15 07:00:43;;;;;;;3.63;2.15;;;;;;;19.99;100.00;101972.97;10352541;28;20053;-68
2023/06/15 07:05:44;;;;;;;7.28;2.03;;;;;;;20.12;100.00;101972.31;10368764;28;20046;-69
2023/06/15 07:10:44;;;;;;;3.53;1.95;;;;;;;20.30;100.00;101974.41;10347906;28;20042;-69
2023/06/15 07:15:44;;;;;;;8.02;3.33;;;;;;;20.61;100.00;101974.13;10356469;28;20050;-68
2023/06/15 07:20:45;;;;;;;3.63;2.38;;;;;;;20.98;100.00;101977.34;10355425;28;20096;-69
2023/06/15 07:25:46;;;;;;;4.13;2.08;;;;;;;21.16;100.00;101969.00;10355799;28;20038;-69
2023/06/15 07:30:49;;;;;;;4.95;2.30;;;;;;;21.40;100.00;101970.94;10362576;28;20041;-68
2023/06/15 07:35:49;;;;;;;3.90;2.15;;;;;;;21.48;99.77;101973.09;10359469;28;20042;-69
2023/06/15 07:40:50;;;;;;;3.22;2.10;;;;;;;21.64;96.88;101972.88;10338525;28;20034;-69
2023/06/15 07:45:50;;;;;;;4.50;2.38;;;;;;;21.79;94.88;101974.59;10337341;28;20050;-69
2023/06/15 07:50:51;;;;;;;3.65;2.17;;;;;;;21.95;96.66;101974.06;10370202;28;20192;-68
2023/06/15 07:55:51;;;;;;;4.88;2.03;;;;;;;22.19;94.92;101966.69;10359514;28;20045;-69
2023/06/15 08:00:52;;;;;;;4.32;2.33;;;;;;;22.42;92.57;101973.31;10374783;28;20037;-69
2023/06/15 08:05:52;;;;;;;7.18;2.00;;;;;;;22.58;90.75;101969.09;10377802;28;20057;-69
2023/06/15 08:10:53;;;;;;;3.53;2.10;;;;;;;22.77;91.46;101969.81;10377232;28;20030;-69
2023/06/15 08:15:53;;;;;;;4.57;2.20;;;;;;;23.05;92.34;101966.22;10377565;28;20033;-68
2023/06/15 08:20:54;;;;;;;3.03;2.35;;;;;;;23.16;85.10;101940.41;10375365;28;20042;-69
2023/06/15 08:25:54;;;;;;;6.65;2.30;;;;;;;23.24;82.57;101946.44;10374150;28;20038;-68
2023/06/15 08:30:55;;;;;;;4.45;2.05;;;;;;;23.07;75.39;101928.28;10376014;28;20052;-68
2023/06/15 08:35:56;;;;;;;2.60;1.73;;;;;;;23.01;79.22;101937.94;10364181;28;20121;-69
2023/06/15 08:40:56;;;;;;;6.90;1.98;;;;;;;23.13;75.14;101929.81;10353948;28;20034;-68
2023/06/15 08:45:57;;;;;;;4.00;1.70;;;;;;;23.06;72.14;101895.69;10356711;28;20136;-68
2023/06/15 08:50:58;;;;;;;4.20;2.50;;;;;;;23.37;74.22;101921.13;10358033;28;20072;-68
2023/06/15 08:55:59;;;;;;;5.47;2.10;;;;;;;23.52;75.39;101936.81;10368674;28;20339;-68
2023/06/15 09:01:00;;;;;;;2.78;2.00;;;;;;;23.86;77.29;101938.28;10358935;28;20088;-68
2023/06/15 09:06:01;;;;;;;4.55;2.58;;;;;;;24.20;75.12;101928.41;10338121;28;20066;-69
2023/06/15 09:11:05;;;;;;;7.82;1.90;;;;;;;24.36;72.88;101921.22;10316072;28;20031;-68
2023/06/15 09:16:07;;;;;;;4.72;2.50;;;;;;;24.64;70.46;101921.06;10366553;28;20092;-69
2023/06/15 09:21:10;;;;;;;8.40;2.15;;;;;;;24.81;68.57;101916.66;10341366;28;20038;-69
2023/06/15 09:26:22;;;;;;;4.25;1.85;;;;;;;25.03;65.17;101908.06;10317895;28;20038;-68
2023/06/15 09:31:32;;;;;;;5.63;2.45;;;;;;;25.11;62.10;101890.34;10351035;28;20126;-68
2023/06/15 09:36:44;;;;;;;3.53;1.52;;;;;;;25.23;64.23;101897.38;10332978;28;20057;-69
2023/06/15 09:41:58;;;;;;;3.58;1.85;;;;;;;25.25;63.65;101900.69;10315605;28;20056;-68
2023/06/15 09:47:00;;;;;;;4.25;2.10;;;;;;;25.34;62.06;101898.69;10347235;28;20486;-68
2023/06/15 09:52:00;;;;;;;4.43;1.90;;;;;;;25.00;63.85;101891.84;10336252;28;20045;-73
2023/06/15 09:57:02;;;;;;;6.03;1.95;;;;;;;25.20;64.28;101889.53;10322878;28;20168;-73
2023/06/15 10:02:03;;;;;;;4.07;1.70;;;;;;;25.31;61.43;101888.09;10328501;28;20488;-72
2023/06/15 10:07:04;;;;;;;6.10;1.80;;;;;;;25.43;64.39;101908.00;10333151;28;20457;-70
2023/06/15 10:12:08;;;;;;;5.10;1.85;;;;;;;25.76;62.32;101901.88;10339005;28;20035;-71
2023/06/15 10:17:08;;;;;;;3.33;1.77;;;;;;;25.99;61.67;101905.34;10355375;28;20091;-71
2023/06/15 10:22:17;;;;;;;4.50;1.73;;;;;;;26.00;59.03;101890.06;10333368;28;20042;-72
2023/06/15 10:27:17;;;;;;;3.08;1.75;;;;;;;26.05;59.25;101895.53;10349049;28;20049;-72
2023/06/15 10:32:36;;;;;;;4.88;2.08;;;;;;;26.06;55.38;101880.25;10351770;28;20042;-70
2023/06/15 10:37:46;;;;;;;7.43;2.92;;;;;;;26.02;55.56;101867.16;10348356;28;20042;-73
2023/06/15 10:42:47;;;;;;;4.70;1.77;;;;;;;26.10;56.36;101875.59;10348392;28;20041;-71
2023/06/15 10:47:48;;;;;;;4.55;2.25;;;;;;;26.23;57.63;101881.38;10345153;28;20124;-71
2023/06/15 10:52:50;;;;;;;3.25;1.65;;;;;;;26.42;56.75;101886.63;10330781;28;20046;-70
2023/06/15 10:58:16;;;;;;;10.90;3.70;;;;;;;26.59;55.09;101882.94;10357800;28;20125;-70
2023/06/15 11:03:24;;;;;;;2.73;1.47;;;;;;;26.90;54.51;101882.59;10343354;28;20533;-72
2023/06/15 11:08:25;;;;;;;2.30;1.65;;;;;;;27.04;52.15;101868.19;10357067;28;20288;-73
2023/06/15 11:13:25;;;;;;;2.47;1.70;;;;;;;26.82;52.37;101869.34;10349517;28;20497;-70
2023/06/15 11:18:26;;;;;;;4.15;1.85;;;;;;;26.84;52.57;101865.00;10364575;28;20043;-71
2023/06/15 11:23:33;;;;;;;3.13;2.00;;;;;;;26.94;50.97;101863.78;10338483;28;20045;-70
2023/06/15 11:28:33;;;;;;;5.97;2.13;;;;;;;27.29;53.54;101869.22;10338813;28;20038;-71
2023/06/15 11:33:40;;;;;;;4.15;2.13;;;;;;;27.31;51.25;101870.53;10335731;28;20046;-70
2023/06/15 11:38:40;;;;;;;4.68;2.10;;;;;;;27.38;50.22;101872.81;10351758;28;20098;-70
2023/06/15 11:43:42;;;;;;;2.65;1.67;;;;;;;27.41;50.32;101860.81;10337342;28;20057;-70
2023/06/15 11:48:44;;;;;;;3.50;1.70;;;;;;;27.82;49.82;101859.06;10367592;28;20080;-70
2023/06/15 11:53:46;;;;;;;2.70;2.03;;;;;;;28.47;51.11;101861.38;10355859;28;20072;-71
2023/06/15 11:58:47;;;;;;;4.05;1.85;;;;;;;28.92;48.28;101849.06;10356344;28;20049;-70
2023/06/15 12:03:48;;;;;;;4.53;1.75;;;;;;;29.46;47.51;101834.56;10355778;28;20065;-70
2023/06/15 12:08:50;;;;;;;3.28;2.00;;;;;;;29.56;45.65;101839.72;10374071;28;20026;-70
2023/06/15 12:13:50;;;;;;;4.10;1.88;;;;;;;29.85;45.29;101840.53;10376306;28;20049;-71
2023/06/15 12:18:58;;;;;;;3.25;1.90;;;;;;;29.78;45.14;101848.84;10374533;28;20038;-70
2023/06/15 12:24:00;;;;;;;5.30;2.13;;;;;;;29.91;44.43;101843.91;10375464;28;20049;-71
2023/06/15 12:29:01;;;;;;;3.03;1.83;;;;;;;29.78;43.96;101837.50;10382142;28;20539;-72
2023/06/15 12:34:08;;;;;;;3.25;1.90;;;;;;;30.12;43.58;101838.84;10414058;28;20052;-71
2023/06/15 12:39:09;;;;;;;3.38;1.85;;;;;;;30.57;43.37;101837.56;10378592;28;20037;-72
2023/06/15 12:44:10;;;;;;;4.30;1.98;;;;;;;30.89;41.62;101831.84;10397723;28;20044;-72
2023/06/15 12:49:11;;;;;;;2.58;1.75;;;;;;;30.52;43.21;101835.00;10381243;28;20042;-73
2023/06/15 12:54:11;;;;;;;4.70;1.85;;;;;;;30.87;40.96;101814.31;10401998;28;20105;-73
2023/06/15 12:59:12;;;;;;;4.20;1.67;;;;;;;30.93;41.76;101820.56;10398626;28;20034;-73
2023/06/15 13:04:12;;;;;;;2.90;1.67;;;;;;;30.81;42.80;101826.34;10386997;28;20037;-73
2023/06/15 13:09:12;;;;;;;3.95;2.55;;;;;;;30.31;43.63;101747.22;10395339;28;20522;-71
2023/06/15 13:14:13;;;;;;;5.63;2.10;;;;;;;31.42;42.53;101825.69;10399703;28;20038;-73
2023/06/15 13:19:14;;;;;;;3.90;2.30;;;;;;;31.08;44.73;101835.91;10409301;28;20029;-73
2023/06/15 13:24:15;;;;;;;8.57;2.15;;;;;;;31.12;44.29;101829.09;10412848;28;20038;-73
2023/06/15 13:29:15;;;;;;;5.03;2.13;;;;;;;30.72;44.49;101833.03;10389844;28;20045;-72
2023/06/15 13:34:16;;;;;;;8.88;2.33;;;;;;;29.78;46.35;101834.66;10399235;28;20037;-71
2023/06/15 13:39:16;;;;;;;4.53;2.17;;;;;;;30.50;45.03;101825.19;10388635;28;20046;-72
2023/06/15 13:44:16;;;;;;;5.57;2.95;;;;;;;30.95;44.94;101818.97;10355714;28;20037;-72
2023/06/15 13:49:17;;;;;;;2.10;1.60;;;;;;;31.13;45.68;101833.59;10373481;28;20045;-72
2023/06/15 13:54:18;;;;;;;4.43;1.75;;;;;;;30.91;45.53;101831.47;10373713;28;20038;-71
2023/06/15 13:59:18;;;;;;;5.70;2.28;;;;;;;30.58;46.92;101852.59;10373150;28;20034;-71
2023/06/15 14:04:19;;;;;;;6.10;2.40;;;;;;;30.29;47.59;101832.00;10372645;28;20084;-72
2023/06/15 14:09:19;;;;;;;2.83;2.15;;;;;;;30.65;46.88;101827.19;10371450;28;20057;-72
2023/06/15 14:14:20;;;;;;;7.32;2.20;;;;;;;30.95;47.11;101823.84;10372813;28;20046;-72
2023/06/15 14:19:24;;;;;;;6.05;2.47;;;;;;;31.57;45.19;101819.09;10372083;28;20041;-72
2023/06/15 14:24:24;;;;;;;3.45;2.33;;;;;;;31.89;44.65;101804.63;10354592;28;20049;-72
2023/06/15 14:29:25;;;;;;;4.93;2.03;;;;;;;32.69;44.56;101810.50;10376710;28;20049;-72
2023/06/15 14:34:25;;;;;;;4.68;2.05;;;;;;;32.20;43.59;101797.06;10380823;28;20026;-72
2023/06/15 14:39:26;;;;;;;3.03;2.30;;;;;;;32.49;43.27;101798.34;10380915;28;20057;-72
2023/06/15 14:44:27;;;;;;;3.08;2.25;;;;;;;32.65;43.68;101795.38;10377286;28;20377;-72
2023/06/15 14:49:28;;;;;;;7.80;2.03;;;;;;;32.82;43.45;101805.38;10334067;28;20093;-71
2023/06/15 14:54:28;;;;;;;4.60;2.42;;;;;;;32.33;43.53;101792.81;10323442;28;20105;-72
2023/06/15 14:59:29;;;;;;;5.70;2.00;;;;;;;32.46;42.87;101795.47;10322093;28;20050;-73
2023/06/15 15:04:29;;;;;;;12.07;1.88;;;;;;;32.54;42.94;101797.25;10339157;28;20034;-72
2023/06/15 15:09:30;;;;;;;5.50;2.03;;;;;;;32.29;41.91;101783.41;10340044;28;20510;-70
2023/06/15 15:14:30;;;;;;;7.38;1.83;;;;;;;33.03;42.71;101784.88;10324299;28;20517;-75
2023/06/15 15:19:31;;;;;;;4.03;1.92;;;;;;;32.74;42.32;101781.66;10348506;28;20705;-73
2023/06/15 15:24:31;;;;;;;4.72;1.90;;;;;;;31.79;41.80;101782.47;10342634;28;20560;-73
2023/06/15 15:29:32;;;;;;;4.32;2.13;;;;;;;31.52;43.66;101785.22;10334821;28;20042;-74
2023/06/15 15:34:32;;;;;;;3.58;2.13;;;;;;;31.28;42.86;101746.53;10346284;28;20141;-73
2023/06/15 15:39:33;;;;;;;6.47;2.03;;;;;;;30.69;42.64;101805.34;10330690;28;20766;-71
2023/06/15 15:44:33;;;;;;;3.05;1.55;;;;;;;29.28;43.63;101804.84;10332092;28;20092;-71
2023/06/15 15:49:34;;;;;;;6.45;1.95;;;;;;;27.81;45.78;101811.34;10322659;28;20353;-70
2023/06/15 15:54:34;;;;;;;3.72;2.17;;;;;;;27.10;46.51;101805.50;10324025;28;20050;-70
2023/06/15 15:59:35;;;;;;;2.97;1.80;;;;;;;26.43;48.66;101812.06;10326086;28;20438;-71
2023/06/15 16:04:36;;;;;;;6.47;1.80;;;;;;;25.71;50.18;101823.88;10342016;28;20034;-71
2023/06/15 16:09:37;;;;;;;5.95;1.70;;;;;;;25.41;49.49;101814.50;10341057;28;20031;-70
2023/06/15 16:14:37;;;;;;;3.97;1.77;;;;;;;25.28;48.71;101815.47;10348375;28;20093;-70
2023/06/15 16:19:38;;;;;;;6.85;1.70;;;;;;;25.09;48.57;101808.13;10376289;28;20049;-71
2023/06/15 16:24:40;;;;;;;6.80;3.15;;;;;;;24.47;47.85;101794.28;10373204;28;20034;-70
2023/06/15 16:29:40;;;;;;;3.60;1.80;;;;;;;24.45;48.02;101805.03;10373381;28;20121;-71
2023/06/15 16:34:41;;;;;;;2.92;1.38;;;;;;;25.12;48.19;101796.22;10374167;28;20038;-72
2023/06/15 16:39:46;;;;;;;3.30;1.77;;;;;;;25.61;47.71;101795.22;10375675;28;20033;-71
2023/06/15 16:44:47;;;;;;;3.55;1.60;;;;;;;26.16;47.67;101794.41;10343865;28;20038;-72
2023/06/15 16:49:49;;;;;;;6.13;1.95;;;;;;;26.35;46.33;101786.34;10340038;28;20042;-72
2023/06/15 16:54:51;;;;;;;4.63;1.85;;;;;;;26.08;46.60;101786.81;10373382;28;20052;-71
2023/06/15 16:59:52;;;;;;;3.78;1.90;;;;;;;25.64;46.24;101788.91;10375169;28;20038;-72
2023/06/15 17:04:53;;;;;;;3.08;1.70;;;;;;;25.64;46.88;101788.91;10375207;28;20568;-71
2023/06/15 17:09:54;;;;;;;3.45;2.45;;;;;;;25.15;48.41;101798.38;10372231;28;20113;-71
2023/06/15 17:14:54;;;;;;;2.97;1.75;;;;;;;24.85;49.47;101802.19;10398282;28;20037;-71
2023/06/15 17:19:55;;;;;;;3.05;1.70;;;;;;;24.51;50.59;101809.38;10402090;28;20067;-71
2023/06/15 17:24:55;;;;;;;3.92;1.23;;;;;;;24.28;50.17;101822.69;10408854;28;20067;-72
2023/06/15 17:29:56;;;;;;;3.90;1.48;;;;;;;24.00;48.29;101811.66;10372522;28;20097;-72
2023/06/15 17:34:56;;;;;;;3.40;1.63;;;;;;;23.61;48.46;101813.19;10368465;28;20038;-72
2023/06/15 17:39:57;;;;;;;3.17;1.75;;;;;;;23.21;49.84;101818.66;10395403;28;20050;-72
2023/06/15 17:44:57;;;;;;;3.03;1.88;;;;;;;22.93;51.25;101796.25;10387437;28;20041;-71
2023/06/15 17:49:58;;;;;;;5.00;1.63;;;;;;;22.92;52.83;101817.06;10384443;28;20049;-72
2023/06/15 17:54:59;;;;;;;6.00;2.78;;;;;;;22.87;53.60;101830.38;10370962;28;20139;-71
2023/06/15 17:59:59;;;;;;;8.48;2.00;;;;;;;22.70;56.09;101848.72;10386142;28;20049;-72
2023/06/15 18:05:00;;;;;;;4.88;1.55;;;;;;;22.52;57.33;101835.63;10371401;28;20041;-72
2023/06/15 18:10:00;;;;;;;5.05;1.92;;;;;;;22.25;58.36;101848.50;10370707;28;20041;-71
2023/06/15 18:15:01;;;;;;;3.17;1.55;;;;;;;22.09;59.14;101855.50;10377564;28;20084;-71
2023/06/15 18:20:02;;;;;;;4.45;2.10;;;;;;;21.99;60.01;101858.50;10390013;28;20061;-71
2023/06/15 18:25:03;;;;;;;5.63;1.65;;;;;;;21.82;60.80;101862.69;10379074;28;20038;-71
2023/06/15 18:30:05;;;;;;;4.15;1.95;;;;;;;21.70;60.42;101853.94;10384441;28;20037;-70
2023/06/15 18:35:06;;;;;;;3.67;1.58;;;;;;;21.71;62.59;101867.66;10382908;28;20038;-71
2023/06/15 18:40:07;;;;;;;3.08;1.80;;;;;;;21.68;63.83;101871.06;10343273;28;20532;-71
2023/06/15 18:45:08;;;;;;;5.10;1.90;;;;;;;21.59;64.68;101866.47;10395403;28;20488;-71
2023/06/15 18:50:09;;;;;;;5.72;2.63;;;;;;;21.53;63.15;101866.53;10383712;28;20038;-71
2023/06/15 18:55:11;;;;;;;3.53;1.85;;;;;;;21.47;64.35;101859.34;10387518;28;20053;-71
2023/06/15 19:00:12;;;;;;;5.57;2.28;;;;;;;21.38;64.56;101851.94;10391598;28;20038;-71
2023/06/15 19:05:13;;;;;;;6.97;2.00;;;;;;;21.43;66.62;101874.28;10391215;28;20037;-71
2023/06/15 19:10:13;;;;;;;5.85;1.83;;;;;;;21.30;68.48;101884.25;10406549;28;20080;-71
2023/06/15 19:15:14;;;;;;;7.20;1.80;;;;;;;21.00;68.79;101855.56;10415540;28;20038;-70
2023/06/15 19:20:14;;;;;;;4.55;1.90;;;;;;;20.98;69.67;101882.16;10406275;28;20029;-70
2023/06/15 19:25:15;;;;;;;6.43;1.63;;;;;;;20.76;71.08;101862.00;10385401;28;20042;-72
2023/06/15 19:30:15;;;;;;;8.30;1.90;;;;;;;20.68;72.03;101878.63;10410116;28;20060;-71
2023/06/15 19:35:16;;;;;;;4.38;2.15;;;;;;;20.44;75.08;101879.44;10392107;28;20441;-70
2023/06/15 19:40:17;;;;;;;2.88;1.75;;;;;;;20.34;75.34;101891.59;10416822;28;20045;-71
2023/06/15 19:45:18;;;;;;;2.70;1.70;;;;;;;20.16;77.22;101900.72;10404406;28;20038;-71
2023/06/15 19:50:18;;;;;;;4.13;1.83;;;;;;;19.91;78.07;101905.41;10404614;28;20049;-71
2023/06/15 19:55:37;;;;;;;4.38;1.73;;;;;;;19.77;80.41;101921.16;10380537;28;20141;-71
2023/06/15 20:00:38;;;;;;;3.25;1.90;;;;;;;19.61;80.15;101920.41;10409753;28;20030;-70
2023/06/15 20:05:38;;;;;;;3.67;2.40;;;;;;;19.49;81.86;101922.72;10401366;28;20453;-71
2023/06/15 20:10:41;;;;;;;4.40;2.13;;;;;;;19.34;82.52;101932.03;10396447;28;20076;-71
2023/06/15 20:15:42;;;;;;;6.28;1.58;;;;;;;19.19;82.27;101932.94;10391099;28;20049;-69
2023/06/15 20:20:42;;;;;;;3.45;1.83;;;;;;;19.03;84.89;101940.56;10364382;28;20033;-70
2023/06/15 20:25:43;;;;;;;4.80;2.45;;;;;;;18.83;85.79;101946.22;10395071;28;20061;-70
2023/06/15 20:30:43;;;;;;;4.80;2.70;;;;;;;18.71;87.97;101944.56;10402444;28;20046;-70
2023/06/15 20:35:44;;;;;;;6.38;2.92;;;;;;;18.57;89.02;101949.06;10392989;28;20046;-70
2023/06/15 20:40:44;;;;;;;5.57;3.03;;;;;;;18.43;89.95;101940.41;10415325;28;20030;-69
2023/06/15 20:45:45;;;;;;;6.30;3.67;;;;;;;18.27;91.35;101941.56;10400730;28;20041;-70
2023/06/15 20:50:46;;;;;;;6.22;2.28;;;;;;;18.08;92.00;101942.13;10413102;28;20041;-69
2023/06/15 20:55:47;;;;;;;3.17;2.40;;;;;;;17.99;93.78;101934.63;10410135;28;20065;-69
2023/06/15 21:00:48;;;;;;;4.68;2.72;;;;;;;17.82;95.54;101935.69;10388310;28;20041;-68
2023/06/15 21:05:48;;;;;;;6.70;2.22;;;;;;;17.70;97.55;101935.13;10389412;28;20120;-68
2023/06/15 21:10:50;;;;;;;4.75;1.83;;;;;;;17.54;98.66;101929.53;10385882;28;20041;-69
2023/06/15 21:15:51;;;;;;;5.68;2.10;;;;;;;17.43;100.00;101927.84;10418116;28;20128;-68
2023/06/15 21:20:54;;;;;;;3.03;1.90;;;;;;;17.36;100.00;101935.59;10367674;28;20037;-68
2023/06/15 21:25:56;;;;;;;3.35;1.85;;;;;;;17.28;100.00;101930.56;10356290;28;20038;-67
2023/06/15 21:30:57;;;;;;;6.03;2.17;;;;;;;17.15;100.00;101929.16;10407370;28;20044;-68
2023/06/15 21:35:58;;;;;;;4.35;1.92;;;;;;;17.07;100.00;101922.16;10401449;28;20046;-71
2023/06/15 21:40:58;;;;;;;5.57;2.45;;;;;;;16.97;100.00;101922.16;10394710;28;20041;-69
2023/06/15 21:45:59;;;;;;;3.45;2.15;;;;;;;16.88;100.00;101921.81;10398807;28;20044;-71
2023/06/15 21:51:01;;;;;;;5.25;3.28;;;;;;;16.80;100.00;101915.91;10323663;28;20071;-69
2023/06/15 21:56:02;;;;;;;4.75;2.50;;;;;;;16.66;100.00;101924.75;10341976;28;20498;-69
2023/06/15 22:01:03;;;;;;;10.38;2.42;;;;;;;16.56;100.00;101913.56;10372657;28;20069;-70
2023/06/15 22:06:07;;;;;;;5.60;2.35;;;;;;;16.38;100.00;101916.78;10359664;28;20042;-70
2023/06/15 22:11:07;;;;;;;4.60;2.92;;;;;;;16.34;100.00;101931.19;10362506;28;20410;-69
2023/06/15 22:16:08;;;;;;;2.55;2.10;;;;;;;16.20;100.00;101927.22;10381829;28;20045;-71
2023/06/15 22:21:08;;;;;;;7.28;3.00;;;;;;;16.09;100.00;101919.91;10410311;28;20097;-67
2023/06/15 22:26:09;;;;;;;3.65;2.40;;;;;;;16.00;100.00;101924.28;10410463;28;20036;-70
2023/06/15 22:31:10;;;;;;;6.30;2.58;;;;;;;15.92;100.00;101923.66;10406876;28;20034;-68
2023/06/15 22:36:12;;;;;;;4.93;2.47;;;;;;;15.87;100.00;101922.78;10384698;28;20064;-68
2023/06/15 22:41:13;;;;;;;4.90;2.83;;;;;;;15.82;100.00;101920.81;10369420;28;20038;-70
2023/06/15 22:46:13;;;;;;;5.72;2.33;;;;;;;15.80;100.00;101920.22;10379073;28;20044;-69
2023/06/15 22:51:14;;;;;;;5.95;2.38;;;;;;;15.71;100.00;101916.25;10398852;28;20038;-68
2023/06/15 22:56:14;;;;;;;7.88;2.83;;;;;;;15.61;100.00;101913.38;10373966;28;20025;-68
2023/06/15 23:01:15;;;;;;;4.47;2.40;;;;;;;15.53;100.00;101917.44;10381900;28;20062;-67